sensor_id;sensor_type;location;lat;lon;timestamp;pressure;altitude;pressure_sealevel;temperature;humidity
33191;BME280;19554;42.652;23.364;2023-04-25T00:01:03;93897.72;;;12.40;81.40
33191;BME280;19554;42.652;23.364;2023-04-25T00:03:31;93898.19;;;12.42;80.48
33191;BME280;19554;42.652;23.364;2023-04-25T00:05:57;93877.41;;;12.48;79.71
33191;BME280;19554;42.652;23.364;2023-04-25T00:08:24;93801.56;;;12.09;78.44
33191;BME280;19554;42.652;23.364;2023-04-25T00:10:50;93817.44;;;12.40;77.72
33191;BME280;19554;42.652;23.364;2023-04-25T00:13:15;93870.88;;;12.75;76.97
33191;BME280;19554;42.652;23.364;2023-04-25T00:15:42;93824.38;;;12.41;77.53
33191;BME280;19554;42.652;23.364;2023-04-25T00:18:08;93865.56;;;12.57;78.30
33191;BME280;19554;42.652;23.364;2023-04-25T00:20:35;93864.00;;;12.56;78.37
33191;BME280;19554;42.652;23.364;2023-04-25T00:23:00;93873.16;;;12.38;79.71
33191;BME280;19554;42.652;23.364;2023-04-25T00:25:26;93854.75;;;12.28;80.91
33191;BME280;19554;42.652;23.364;2023-04-25T00:27:51;93843.75;;;12.12;82.43
33191;BME280;19554;42.652;23.364;2023-04-25T00:30:16;93844.53;;;11.95;82.79
33191;BME280;19554;42.652;23.364;2023-04-25T00:32:42;93834.75;;;11.82;83.41
33191;BME280;19554;42.652;23.364;2023-04-25T00:35:08;93831.38;;;11.42;85.28
33191;BME280;19554;42.652;23.364;2023-04-25T00:37:34;93837.19;;;11.35;85.94
33191;BME280;19554;42.652;23.364;2023-04-25T00:40:00;93837.13;;;11.18;86.96
33191;BME280;19554;42.652;23.364;2023-04-25T00:42:25;93832.16;;;10.85;88.69
33191;BME280;19554;42.652;23.364;2023-04-25T00:44:52;93824.59;;;10.87;89.15
33191;BME280;19554;42.652;23.364;2023-04-25T00:47:18;93714.19;;;10.26;89.35
33191;BME280;19554;42.652;23.364;2023-04-25T00:49:43;93823.44;;;11.02;89.31
33191;BME280;19554;42.652;23.364;2023-04-25T00:52:09;93834.94;;;11.20;88.93
33191;BME280;19554;42.652;23.364;2023-04-25T00:54:35;93840.91;;;11.17;87.85
33191;BME280;19554;42.652;23.364;2023-04-25T00:57:01;93828.03;;;11.19;87.12
33191;BME280;19554;42.652;23.364;2023-04-25T00:59:27;93805.38;;;11.07;87.42
33191;BME280;19554;42.652;23.364;2023-04-25T01:01:53;93821.44;;;11.16;87.68
33191;BME280;19554;42.652;23.364;2023-04-25T01:04:18;93822.25;;;11.25;87.08
33191;BME280;19554;42.652;23.364;2023-04-25T01:06:44;93817.97;;;11.15;86.56
33191;BME280;19554;42.652;23.364;2023-04-25T01:09:10;93833.44;;;11.36;86.62
33191;BME280;19554;42.652;23.364;2023-04-25T01:11:35;93825.44;;;11.53;85.83
33191;BME280;19554;42.652;23.364;2023-04-25T01:14:01;93804.50;;;11.38;85.41
33191;BME280;19554;42.652;23.364;2023-04-25T01:16:27;93809.88;;;11.47;85.96
33191;BME280;19554;42.652;23.364;2023-04-25T01:18:53;93770.19;;;11.14;85.68
33191;BME280;19554;42.652;23.364;2023-04-25T01:21:19;93793.97;;;11.42;85.12
33191;BME280;19554;42.652;23.364;2023-04-25T01:23:44;93704.16;;;10.80;84.96
33191;BME280;19554;42.652;23.364;2023-04-25T01:26:11;93706.22;;;10.83;85.63
33191;BME280;19554;42.652;23.364;2023-04-25T01:28:37;93780.28;;;11.26;85.55
33191;BME280;19554;42.652;23.364;2023-04-25T01:31:04;93794.84;;;11.11;87.35
33191;BME280;19554;42.652;23.364;2023-04-25T01:33:31;93787.78;;;11.06;87.97
33191;BME280;19554;42.652;23.364;2023-04-25T01:35:56;93788.25;;;11.08;88.46
33191;BME280;19554;42.652;23.364;2023-04-25T01:38:21;93770.41;;;10.78;89.50
33191;BME280;19554;42.652;23.364;2023-04-25T01:40:49;93808.53;;;11.09;89.49
33191;BME280;19554;42.652;23.364;2023-04-25T01:43:16;93733.34;;;10.76;88.94
33191;BME280;19554;42.652;23.364;2023-04-25T01:45:42;93805.13;;;11.35;88.12
33191;BME280;19554;42.652;23.364;2023-04-25T01:48:12;93804.81;;;11.45;87.32
33191;BME280;19554;42.652;23.364;2023-04-25T01:50:38;93811.59;;;11.51;86.46
33191;BME280;19554;42.652;23.364;2023-04-25T01:53:05;93787.06;;;11.41;86.53
33191;BME280;19554;42.652;23.364;2023-04-25T01:55:30;93718.81;;;11.17;85.64
33191;BME280;19554;42.652;23.364;2023-04-25T01:57:56;93808.34;;;11.89;84.49
33191;BME280;19554;42.652;23.364;2023-04-25T02:00:22;93810.09;;;11.94;83.75
33191;BME280;19554;42.652;23.364;2023-04-25T02:02:48;93802.22;;;11.97;83.51
33191;BME280;19554;42.652;23.364;2023-04-25T02:05:16;93810.88;;;12.12;82.89
33191;BME280;19554;42.652;23.364;2023-04-25T02:07:41;93767.75;;;12.04;82.19
33191;BME280;19554;42.652;23.364;2023-04-25T02:10:07;93786.91;;;12.32;81.76
33191;BME280;19554;42.652;23.364;2023-04-25T02:12:32;93779.47;;;12.47;81.06
33191;BME280;19554;42.652;23.364;2023-04-25T02:14:58;93790.03;;;12.43;80.33
33191;BME280;19554;42.652;23.364;2023-04-25T02:17:23;93787.41;;;12.08;80.77
33191;BME280;19554;42.652;23.364;2023-04-25T02:19:48;93706.41;;;11.82;81.32
33191;BME280;19554;42.652;23.364;2023-04-25T02:22:14;93783.13;;;12.42;80.09
33191;BME280;19554;42.652;23.364;2023-04-25T02:24:39;93777.13;;;12.45;79.75
33191;BME280;19554;42.652;23.364;2023-04-25T02:27:05;93761.47;;;12.00;81.33
33191;BME280;19554;42.652;23.364;2023-04-25T02:29:31;93763.97;;;12.05;82.48
33191;BME280;19554;42.652;23.364;2023-04-25T02:31:56;93766.16;;;12.21;81.91
33191;BME280;19554;42.652;23.364;2023-04-25T02:34:22;93729.84;;;12.11;81.02
33191;BME280;19554;42.652;23.364;2023-04-25T02:36:48;93759.53;;;12.27;80.83
33191;BME280;19554;42.652;23.364;2023-04-25T02:39:14;93765.50;;;12.41;80.34
33191;BME280;19554;42.652;23.364;2023-04-25T02:41:40;93754.13;;;12.44;79.67
33191;BME280;19554;42.652;23.364;2023-04-25T02:44:05;93767.00;;;12.60;79.36
33191;BME280;19554;42.652;23.364;2023-04-25T02:46:31;93766.66;;;12.70;78.36
33191;BME280;19554;42.652;23.364;2023-04-25T02:48:56;93748.06;;;12.65;78.04
33191;BME280;19554;42.652;23.364;2023-04-25T02:51:21;93771.00;;;12.83;77.29
33191;BME280;19554;42.652;23.364;2023-04-25T02:53:47;93754.31;;;12.86;76.39
33191;BME280;19554;42.652;23.364;2023-04-25T02:56:12;93704.97;;;12.57;76.28
33191;BME280;19554;42.652;23.364;2023-04-25T02:58:37;93738.22;;;12.86;75.88
33191;BME280;19554;42.652;23.364;2023-04-25T03:01:03;93745.50;;;12.86;75.48
33191;BME280;19554;42.652;23.364;2023-04-25T03:03:28;93748.94;;;12.86;75.53
33191;BME280;19554;42.652;23.364;2023-04-25T03:05:53;93739.00;;;12.87;75.13
33191;BME280;19554;42.652;23.364;2023-04-25T03:08:19;93742.84;;;12.77;75.30
33191;BME280;19554;42.652;23.364;2023-04-25T03:10:45;93719.94;;;12.59;75.44
33191;BME280;19554;42.652;23.364;2023-04-25T03:13:10;93736.78;;;12.50;75.72
33191;BME280;19554;42.652;23.364;2023-04-25T03:15:38;93740.00;;;12.35;76.59
33191;BME280;19554;42.652;23.364;2023-04-25T03:18:03;93730.09;;;12.27;77.31
33191;BME280;19554;42.652;23.364;2023-04-25T03:20:29;93737.03;;;12.28;77.65
33191;BME280;19554;42.652;23.364;2023-04-25T03:22:55;93745.22;;;12.23;77.94
33191;BME280;19554;42.652;23.364;2023-04-25T03:25:21;93737.19;;;12.23;78.34
33191;BME280;19554;42.652;23.364;2023-04-25T03:27:46;93741.63;;;12.19;78.41
33191;BME280;19554;42.652;23.364;2023-04-25T03:30:12;93744.94;;;12.07;78.85
33191;BME280;19554;42.652;23.364;2023-04-25T03:32:37;93740.72;;;11.97;79.71
33191;BME280;19554;42.652;23.364;2023-04-25T03:35:03;93698.09;;;11.75;79.94
33191;BME280;19554;42.652;23.364;2023-04-25T03:37:29;93729.69;;;12.07;80.14
33191;BME280;19554;42.652;23.364;2023-04-25T03:39:54;93701.38;;;11.72;80.05
33191;BME280;19554;42.652;23.364;2023-04-25T03:42:19;93719.66;;;11.52;81.18
33191;BME280;19554;42.652;23.364;2023-04-25T03:44:48;93747.78;;;11.58;82.34
33191;BME280;19554;42.652;23.364;2023-04-25T03:47:13;93709.91;;;11.39;83.07
33191;BME280;19554;42.652;23.364;2023-04-25T03:49:38;93756.59;;;11.76;82.14
33191;BME280;19554;42.652;23.364;2023-04-25T03:52:04;93740.06;;;11.66;81.28
33191;BME280;19554;42.652;23.364;2023-04-25T03:54:29;93730.00;;;11.45;83.04
33191;BME280;19554;42.652;23.364;2023-04-25T03:56:54;93736.31;;;11.67;82.86
33191;BME280;19554;42.652;23.364;2023-04-25T03:59:20;93728.13;;;11.80;80.66
33191;BME280;19554;42.652;23.364;2023-04-25T04:01:45;93726.88;;;11.95;80.21
33191;BME280;19554;42.652;23.364;2023-04-25T04:04:10;93721.38;;;11.83;81.40
33191;BME280;19554;42.652;23.364;2023-04-25T04:06:36;93724.19;;;11.95;81.55
33191;BME280;19554;42.652;23.364;2023-04-25T04:09:02;93730.94;;;11.93;81.72
33191;BME280;19554;42.652;23.364;2023-04-25T04:11:28;93744.81;;;11.95;82.11
33191;BME280;19554;42.652;23.364;2023-04-25T04:13:53;93751.06;;;12.25;82.34
33191;BME280;19554;42.652;23.364;2023-04-25T04:16:19;93753.78;;;12.54;81.68
33191;BME280;19554;42.652;23.364;2023-04-25T04:18:45;93758.75;;;12.73;79.84
33191;BME280;19554;42.652;23.364;2023-04-25T04:21:11;93750.50;;;12.87;78.20
33191;BME280;19554;42.652;23.364;2023-04-25T04:23:36;93730.56;;;12.29;79.40
33191;BME280;19554;42.652;23.364;2023-04-25T04:26:02;93740.38;;;12.07;81.12
33191;BME280;19554;42.652;23.364;2023-04-25T04:28:28;93739.13;;;11.79;81.48
33191;BME280;19554;42.652;23.364;2023-04-25T04:30:53;93704.25;;;11.49;81.35
33191;BME280;19554;42.652;23.364;2023-04-25T04:33:18;93721.84;;;11.68;82.41
33191;BME280;19554;42.652;23.364;2023-04-25T04:35:45;93747.28;;;11.82;81.99
33191;BME280;19554;42.652;23.364;2023-04-25T04:38:12;93660.41;;;11.15;82.82
33191;BME280;19554;42.652;23.364;2023-04-25T04:40:40;93744.94;;;11.72;83.17
33191;BME280;19554;42.652;23.364;2023-04-25T04:43:06;93748.88;;;11.83;82.91
33191;BME280;19554;42.652;23.364;2023-04-25T04:45:34;93666.22;;;11.52;81.99
33191;BME280;19554;42.652;23.364;2023-04-25T04:47:59;93746.34;;;12.22;80.78
33191;BME280;19554;42.652;23.364;2023-04-25T04:50:24;93743.03;;;12.25;79.52
33191;BME280;19554;42.652;23.364;2023-04-25T04:52:51;93710.00;;;12.12;79.82
33191;BME280;19554;42.652;23.364;2023-04-25T04:55:17;93757.56;;;12.53;79.61
33191;BME280;19554;42.652;23.364;2023-04-25T04:57:42;93764.00;;;12.61;78.64
33191;BME280;19554;42.652;23.364;2023-04-25T05:00:08;93730.72;;;12.32;77.96
33191;BME280;19554;42.652;23.364;2023-04-25T05:02:37;93757.31;;;12.29;78.71
33191;BME280;19554;42.652;23.364;2023-04-25T05:05:02;93763.66;;;11.81;79.36
33191;BME280;19554;42.652;23.364;2023-04-25T05:07:28;93765.22;;;11.47;81.21
33191;BME280;19554;42.652;23.364;2023-04-25T05:09:53;93769.31;;;11.36;81.70
33191;BME280;19554;42.652;23.364;2023-04-25T05:12:18;93776.84;;;11.51;82.68
33191;BME280;19554;42.652;23.364;2023-04-25T05:14:44;93698.56;;;11.07;83.15
33191;BME280;19554;42.652;23.364;2023-04-25T05:17:09;93780.81;;;11.62;83.32
33191;BME280;19554;42.652;23.364;2023-04-25T05:19:35;93790.88;;;11.74;82.80
33191;BME280;19554;42.652;23.364;2023-04-25T05:22:01;93778.00;;;11.85;82.43
33191;BME280;19554;42.652;23.364;2023-04-25T05:24:26;93784.91;;;11.86;82.13
33191;BME280;19554;42.652;23.364;2023-04-25T05:26:52;93774.34;;;11.63;82.54
33191;BME280;19554;42.652;23.364;2023-04-25T05:29:18;93779.38;;;11.39;84.47
33191;BME280;19554;42.652;23.364;2023-04-25T05:31:44;93770.22;;;11.23;86.01
33191;BME280;19554;42.652;23.364;2023-04-25T05:34:09;93772.09;;;11.13;86.77
33191;BME280;19554;42.652;23.364;2023-04-25T05:36:35;93766.75;;;11.13;85.82
33191;BME280;19554;42.652;23.364;2023-04-25T05:39:00;93777.13;;;11.24;85.60
33191;BME280;19554;42.652;23.364;2023-04-25T05:41:25;93758.88;;;11.08;85.72
33191;BME280;19554;42.652;23.364;2023-04-25T05:43:51;93762.34;;;11.18;86.11
33191;BME280;19554;42.652;23.364;2023-04-25T05:46:16;93784.09;;;11.42;85.75
33191;BME280;19554;42.652;23.364;2023-04-25T05:48:42;93774.66;;;11.53;85.46
33191;BME280;19554;42.652;23.364;2023-04-25T05:51:08;93787.41;;;11.65;84.13
33191;BME280;19554;42.652;23.364;2023-04-25T05:53:34;93787.09;;;11.75;82.33
33191;BME280;19554;42.652;23.364;2023-04-25T05:55:59;93774.03;;;11.74;81.51
33191;BME280;19554;42.652;23.364;2023-04-25T05:58:24;93786.81;;;11.85;81.90
33191;BME280;19554;42.652;23.364;2023-04-25T06:00:50;93787.13;;;11.84;82.38
33191;BME280;19554;42.652;23.364;2023-04-25T06:03:16;93717.28;;;11.51;80.72
33191;BME280;19554;42.652;23.364;2023-04-25T06:05:42;93777.03;;;11.90;81.26
33191;BME280;19554;42.652;23.364;2023-04-25T06:08:08;93752.38;;;11.84;82.13
33191;BME280;19554;42.652;23.364;2023-04-25T06:10:35;93790.06;;;12.26;80.82
33191;BME280;19554;42.652;23.364;2023-04-25T06:13:00;93777.75;;;12.42;78.31
33191;BME280;19554;42.652;23.364;2023-04-25T06:15:26;93776.00;;;12.55;78.03
33191;BME280;19554;42.652;23.364;2023-04-25T06:17:51;93781.16;;;12.69;77.83
33191;BME280;19554;42.652;23.364;2023-04-25T06:20:16;93771.66;;;12.80;76.94
33191;BME280;19554;42.652;23.364;2023-04-25T06:22:42;93783.78;;;12.77;75.90
33191;BME280;19554;42.652;23.364;2023-04-25T06:25:07;93783.00;;;12.77;75.18
33191;BME280;19554;42.652;23.364;2023-04-25T06:27:33;93781.72;;;12.83;74.66
33191;BME280;19554;42.652;23.364;2023-04-25T06:29:59;93715.91;;;12.35;73.78
33191;BME280;19554;42.652;23.364;2023-04-25T06:32:24;93789.00;;;12.74;74.51
33191;BME280;19554;42.652;23.364;2023-04-25T06:34:52;93721.09;;;12.40;75.11
33191;BME280;19554;42.652;23.364;2023-04-25T06:37:17;93785.56;;;13.03;75.44
33191;BME280;19554;42.652;23.364;2023-04-25T06:39:43;93781.13;;;13.07;74.31
33191;BME280;19554;42.652;23.364;2023-04-25T06:42:08;93777.56;;;13.33;74.87
33191;BME280;19554;42.652;23.364;2023-04-25T06:44:34;93787.84;;;13.72;72.91
33191;BME280;19554;42.652;23.364;2023-04-25T06:46:59;93780.97;;;13.63;72.66
33191;BME280;19554;42.652;23.364;2023-04-25T06:49:25;93781.09;;;13.87;71.30
33191;BME280;19554;42.652;23.364;2023-04-25T06:51:50;93789.47;;;14.07;71.01
33191;BME280;19554;42.652;23.364;2023-04-25T06:54:15;93790.25;;;14.07;70.83
33191;BME280;19554;42.652;23.364;2023-04-25T06:56:41;93800.06;;;14.24;69.81
33191;BME280;19554;42.652;23.364;2023-04-25T06:59:06;93785.50;;;14.25;67.79
33191;BME280;19554;42.652;23.364;2023-04-25T07:01:31;93769.69;;;14.11;66.46
33191;BME280;19554;42.652;23.364;2023-04-25T07:03:57;93791.03;;;14.08;66.33
33191;BME280;19554;42.652;23.364;2023-04-25T07:06:22;93789.47;;;14.07;65.81
33191;BME280;19554;42.652;23.364;2023-04-25T07:08:48;93785.03;;;14.11;65.96
33191;BME280;19554;42.652;23.364;2023-04-25T07:11:13;93786.28;;;13.92;66.05
33191;BME280;19554;42.652;23.364;2023-04-25T07:13:38;93768.31;;;13.72;67.20
33191;BME280;19554;42.652;23.364;2023-04-25T07:16:04;93781.50;;;13.77;67.58
33191;BME280;19554;42.652;23.364;2023-04-25T07:18:30;93785.66;;;13.74;67.74
33191;BME280;19554;42.652;23.364;2023-04-25T07:20:55;93790.03;;;13.79;67.43
33191;BME280;19554;42.652;23.364;2023-04-25T07:23:20;93786.75;;;13.73;67.17
33191;BME280;19554;42.652;23.364;2023-04-25T07:25:46;93773.66;;;13.72;67.59
33191;BME280;19554;42.652;23.364;2023-04-25T07:28:12;93792.50;;;13.84;68.49
33191;BME280;19554;42.652;23.364;2023-04-25T07:30:37;93771.09;;;13.96;69.13
33191;BME280;19554;42.652;23.364;2023-04-25T07:33:02;93772.31;;;14.20;68.54
33191;BME280;19554;42.652;23.364;2023-04-25T07:35:28;93762.47;;;14.24;67.85
33191;BME280;19554;42.652;23.364;2023-04-25T07:37:53;93781.88;;;14.42;68.22
33191;BME280;19554;42.652;23.364;2023-04-25T07:40:18;93783.13;;;14.44;67.94
33191;BME280;19554;42.652;23.364;2023-04-25T07:42:44;93778.66;;;14.49;66.53
33191;BME280;19554;42.652;23.364;2023-04-25T07:45:09;93771.88;;;14.51;66.88
33191;BME280;19554;42.652;23.364;2023-04-25T07:47:35;93772.22;;;14.62;67.21
33191;BME280;19554;42.652;23.364;2023-04-25T07:50:01;93773.34;;;14.61;65.70
33191;BME280;19554;42.652;23.364;2023-04-25T07:52:27;93769.50;;;14.50;64.77
33191;BME280;19554;42.652;23.364;2023-04-25T07:54:52;93771.25;;;14.33;65.30
33191;BME280;19554;42.652;23.364;2023-04-25T07:57:18;93702.91;;;13.97;66.49
33191;BME280;19554;42.652;23.364;2023-04-25T07:59:44;93764.66;;;14.43;66.49
33191;BME280;19554;42.652;23.364;2023-04-25T08:02:10;93767.66;;;14.41;65.99
33191;BME280;19554;42.652;23.364;2023-04-25T08:04:35;93761.66;;;14.44;65.85
33191;BME280;19554;42.652;23.364;2023-04-25T08:07:01;93754.97;;;14.51;66.60
33191;BME280;19554;42.652;23.364;2023-04-25T08:09:26;93749.63;;;14.63;65.49
33191;BME280;19554;42.652;23.364;2023-04-25T08:11:52;93759.72;;;15.03;65.60
33191;BME280;19554;42.652;23.364;2023-04-25T08:14:17;93762.19;;;15.20;64.97
33191;BME280;19554;42.652;23.364;2023-04-25T08:16:43;93696.56;;;15.09;64.22
33191;BME280;19554;42.652;23.364;2023-04-25T08:19:09;93755.78;;;16.02;61.45
33191;BME280;19554;42.652;23.364;2023-04-25T08:21:34;93746.41;;;16.40;60.05
33191;BME280;19554;42.652;23.364;2023-04-25T08:24:00;93718.97;;;16.50;59.08
33191;BME280;19554;42.652;23.364;2023-04-25T08:26:25;93744.75;;;16.79;58.30
33191;BME280;19554;42.652;23.364;2023-04-25T08:28:51;93732.31;;;17.06;56.57
33191;BME280;19554;42.652;23.364;2023-04-25T08:31:16;93726.03;;;17.02;56.14
33191;BME280;19554;42.652;23.364;2023-04-25T08:33:42;93651.25;;;16.67;54.94
33191;BME280;19554;42.652;23.364;2023-04-25T08:36:08;93734.81;;;16.99;55.39
33191;BME280;19554;42.652;23.364;2023-04-25T08:38:34;93727.25;;;16.89;53.87
33191;BME280;19554;42.652;23.364;2023-04-25T08:40:59;93725.00;;;16.91;53.69
33191;BME280;19554;42.652;23.364;2023-04-25T08:43:28;93739.63;;;16.90;54.87
33191;BME280;19554;42.652;23.364;2023-04-25T08:45:58;93744.34;;;16.65;53.85
33191;BME280;19554;42.652;23.364;2023-04-25T08:48:24;93752.53;;;16.68;54.67
33191;BME280;19554;42.652;23.364;2023-04-25T08:50:53;93751.75;;;16.52;56.35
33191;BME280;19554;42.652;23.364;2023-04-25T08:53:24;93741.09;;;16.27;58.90
33191;BME280;19554;42.652;23.364;2023-04-25T08:55:50;93737.50;;;16.23;58.54
33191;BME280;19554;42.652;23.364;2023-04-25T08:58:18;93730.56;;;16.22;58.69
33191;BME280;19554;42.652;23.364;2023-04-25T09:00:46;93602.34;;;15.58;57.31
33191;BME280;19554;42.652;23.364;2023-04-25T09:03:12;93630.00;;;15.30;61.57
33191;BME280;19554;42.652;23.364;2023-04-25T09:05:39;93740.72;;;15.08;65.22
33191;BME280;19554;42.652;23.364;2023-04-25T09:08:05;93724.56;;;14.83;67.70
33191;BME280;19554;42.652;23.364;2023-04-25T09:10:31;93724.34;;;15.01;66.04
33191;BME280;19554;42.652;23.364;2023-04-25T09:13:10;93729.59;;;14.97;67.39
33191;BME280;19554;42.652;23.364;2023-04-25T09:15:54;93736.44;;;14.70;67.08
33191;BME280;19554;42.652;23.364;2023-04-25T09:18:33;93725.22;;;14.56;68.53
33191;BME280;19554;42.652;23.364;2023-04-25T09:21:10;93622.41;;;13.85;68.22
33191;BME280;19554;42.652;23.364;2023-04-25T09:23:41;93725.00;;;14.61;67.05
33191;BME280;19554;42.652;23.364;2023-04-25T09:26:07;93717.63;;;14.82;67.50
33191;BME280;19554;42.652;23.364;2023-04-25T09:28:33;93696.56;;;14.97;67.60
33191;BME280;19554;42.652;23.364;2023-04-25T09:31:00;93682.94;;;15.02;66.57
33191;BME280;19554;42.652;23.364;2023-04-25T09:33:31;93662.06;;;15.11;65.46
33191;BME280;19554;42.652;23.364;2023-04-25T09:36:07;93717.13;;;15.41;63.65
33191;BME280;19554;42.652;23.364;2023-04-25T09:38:45;93714.63;;;15.61;63.64
33191;BME280;19554;42.652;23.364;2023-04-25T09:41:11;93643.00;;;15.28;62.74
33191;BME280;19554;42.652;23.364;2023-04-25T09:43:37;93708.88;;;15.75;62.80
33191;BME280;19554;42.652;23.364;2023-04-25T09:46:08;93696.03;;;15.68;63.61
33191;BME280;19554;42.652;23.364;2023-04-25T09:48:34;93708.75;;;15.83;63.65
33191;BME280;19554;42.652;23.364;2023-04-25T09:51:10;93595.78;;;15.15;62.31
33191;BME280;19554;42.652;23.364;2023-04-25T09:53:37;93707.38;;;15.90;62.33
33191;BME280;19554;42.652;23.364;2023-04-25T09:56:07;93700.47;;;16.04;62.24
33191;BME280;19554;42.652;23.364;2023-04-25T09:58:34;93709.16;;;16.14;62.33
33191;BME280;19554;42.652;23.364;2023-04-25T10:01:02;93714.16;;;15.99;62.92
33191;BME280;19554;42.652;23.364;2023-04-25T10:03:32;93708.41;;;15.85;63.06
33191;BME280;19554;42.652;23.364;2023-04-25T10:06:08;93692.91;;;15.66;62.59
33191;BME280;19554;42.652;23.364;2023-04-25T10:08:37;93713.28;;;15.67;63.72
33191;BME280;19554;42.652;23.364;2023-04-25T10:11:05;93680.22;;;15.54;63.79
33191;BME280;19554;42.652;23.364;2023-04-25T10:13:32;93686.94;;;15.60;63.75
33191;BME280;19554;42.652;23.364;2023-04-25T10:15:59;93691.03;;;15.42;63.61
33191;BME280;19554;42.652;23.364;2023-04-25T10:18:26;93709.50;;;15.44;63.79
33191;BME280;19554;42.652;23.364;2023-04-25T10:20:57;93615.09;;;14.92;63.45
33191;BME280;19554;42.652;23.364;2023-04-25T10:23:24;93739.19;;;15.59;65.92
33191;BME280;19554;42.652;23.364;2023-04-25T10:25:51;93727.25;;;15.20;62.85
33191;BME280;19554;42.652;23.364;2023-04-25T10:28:17;93719.66;;;14.98;58.15
33191;BME280;19554;42.652;23.364;2023-04-25T10:31:02;93701.19;;;14.84;57.83
33191;BME280;19554;42.652;23.364;2023-04-25T10:33:40;93644.97;;;14.42;57.00
33191;BME280;19554;42.652;23.364;2023-04-25T10:36:18;93701.53;;;14.95;52.31
33191;BME280;19554;42.652;23.364;2023-04-25T10:38:45;93675.31;;;14.91;55.95
33191;BME280;19554;42.652;23.364;2023-04-25T10:41:12;93699.13;;;15.30;56.76
33191;BME280;19554;42.652;23.364;2023-04-25T10:46:17;93658.75;;;15.82;56.98
33191;BME280;19554;42.652;23.364;2023-04-25T10:48:49;93680.09;;;16.19;53.25
33191;BME280;19554;42.652;23.364;2023-04-25T10:51:23;93710.47;;;16.04;56.86
33191;BME280;19554;42.652;23.364;2023-04-25T10:56:21;93707.22;;;14.93;64.39
33191;BME280;19554;42.652;23.364;2023-04-25T10:58:48;93698.47;;;14.59;64.37
33191;BME280;19554;42.652;23.364;2023-04-25T11:01:14;93705.06;;;14.50;63.70
33191;BME280;19554;42.652;23.364;2023-04-25T11:03:43;93705.22;;;14.32;62.08
33191;BME280;19554;42.652;23.364;2023-04-25T11:06:37;93701.75;;;14.19;61.37
33191;BME280;19554;42.652;23.364;2023-04-25T11:09:12;93699.19;;;14.35;60.35
33191;BME280;19554;42.652;23.364;2023-04-25T11:11:40;93707.38;;;14.39;60.43
33191;BME280;19554;42.652;23.364;2023-04-25T11:14:06;93709.09;;;14.56;60.81
33191;BME280;19554;42.652;23.364;2023-04-25T11:16:31;93699.50;;;14.79;60.71
33191;BME280;19554;42.652;23.364;2023-04-25T11:18:58;93696.13;;;15.07;60.23
33191;BME280;19554;42.652;23.364;2023-04-25T11:21:25;93691.16;;;15.46;58.76
33191;BME280;19554;42.652;23.364;2023-04-25T11:23:51;93666.00;;;15.66;52.70
33191;BME280;19554;42.652;23.364;2023-04-25T11:26:19;93686.19;;;15.88;53.39
33191;BME280;19554;42.652;23.364;2023-04-25T11:28:45;93670.03;;;15.60;51.25
33191;BME280;19554;42.652;23.364;2023-04-25T11:31:10;93684.34;;;15.76;52.46
33191;BME280;19554;42.652;23.364;2023-04-25T11:33:36;93634.22;;;15.44;54.96
33191;BME280;19554;42.652;23.364;2023-04-25T11:36:01;93684.72;;;15.62;58.54
33191;BME280;19554;42.652;23.364;2023-04-25T11:38:27;93688.56;;;15.49;59.10
33191;BME280;19554;42.652;23.364;2023-04-25T11:40:52;93688.66;;;15.53;58.44
33191;BME280;19554;42.652;23.364;2023-04-25T11:43:21;93686.66;;;15.50;59.03
33191;BME280;19554;42.652;23.364;2023-04-25T11:45:50;93687.78;;;15.49;61.34
33191;BME280;19554;42.652;23.364;2023-04-25T11:48:17;93667.09;;;15.25;61.49
33191;BME280;19554;42.652;23.364;2023-04-25T11:50:42;93715.78;;;15.48;61.51
33191;BME280;19554;42.652;23.364;2023-04-25T11:53:08;93657.63;;;15.03;63.23
33191;BME280;19554;42.652;23.364;2023-04-25T11:55:34;93706.41;;;15.17;59.32
33191;BME280;19554;42.652;23.364;2023-04-25T11:58:00;93713.59;;;15.01;60.25
33191;BME280;19554;42.652;23.364;2023-04-25T12:00:26;93708.44;;;14.96;61.37
33191;BME280;19554;42.652;23.364;2023-04-25T12:02:56;93724.56;;;14.59;61.43
33191;BME280;19554;42.652;23.364;2023-04-25T12:05:31;93706.94;;;14.37;63.53
33191;BME280;19554;42.652;23.364;2023-04-25T12:08:17;93694.63;;;14.36;64.37
33191;BME280;19554;42.652;23.364;2023-04-25T12:10:45;93557.53;;;13.59;65.42
33191;BME280;19554;42.652;23.364;2023-04-25T12:13:21;93689.22;;;14.57;64.41
33191;BME280;19554;42.652;23.364;2023-04-25T12:15:47;93684.94;;;14.68;62.47
33191;BME280;19554;42.652;23.364;2023-04-25T12:18:12;93680.03;;;14.82;63.55
33191;BME280;19554;42.652;23.364;2023-04-25T12:20:38;93639.75;;;14.70;60.79
33191;BME280;19554;42.652;23.364;2023-04-25T12:23:06;93673.28;;;15.13;60.63
33191;BME280;19554;42.652;23.364;2023-04-25T12:25:40;93652.66;;;15.17;61.92
33191;BME280;19554;42.652;23.364;2023-04-25T12:33:28;93654.66;;;15.20;62.56
33191;BME280;19554;42.652;23.364;2023-04-25T12:35:54;93665.19;;;15.25;62.64
33191;BME280;19554;42.652;23.364;2023-04-25T12:38:30;93667.38;;;15.48;62.86
33191;BME280;19554;42.652;23.364;2023-04-25T12:40:57;93684.38;;;15.52;61.78
33191;BME280;19554;42.652;23.364;2023-04-25T12:43:23;93685.31;;;15.44;62.37
33191;BME280;19554;42.652;23.364;2023-04-25T12:45:50;93723.88;;;15.35;59.63
33191;BME280;19554;42.652;23.364;2023-04-25T12:48:17;93731.19;;;14.98;60.78
33191;BME280;19554;42.652;23.364;2023-04-25T12:50:42;93717.63;;;14.82;63.52
33191;BME280;19554;42.652;23.364;2023-04-25T12:53:09;93721.66;;;14.64;65.85
33191;BME280;19554;42.652;23.364;2023-04-25T12:55:34;93729.25;;;14.62;66.83
33191;BME280;19554;42.652;23.364;2023-04-25T12:58:00;93637.97;;;13.92;67.58